Time;durP1;ratioP1;P1;durP2;ratioP2;P2;SDS_P1;SDS_P2;PMS_P1;PMS_P2;Temp;Humidity;BMP_temperature;BMP_pressure;BME280_temperature;BME280_humidity;BME280_pressure;Samples;Min_cycle;Max_cycle;Signal;HPM_P1;HPM_P2
2023/10/21 00:02:03;;;;;;;4.35;2.35;;;;;;;3.54;65.54;98613.41;4978522;28;20461;-72
2023/10/21 00:04:29;;;;;;;3.00;1.83;;;;;;;3.69;64.73;98611.00;4976385;28;20331;-72
2023/10/21 00:06:55;;;;;;;3.47;2.08;;;;;;;3.44;65.25;98614.75;4971250;28;21056;-72
2023/10/21 00:09:21;;;;;;;5.45;2.15;;;;;;;3.45;65.65;98613.84;4980539;28;20116;-71
2023/10/21 00:11:46;;;;;;;3.55;2.70;;;;;;;3.50;65.79;98624.78;4976533;28;20595;-72
2023/10/21 00:14:12;;;;;;;5.03;2.45;;;;;;;3.68;65.29;98630.84;4980089;28;20056;-71
2023/10/21 00:16:38;;;;;;;3.55;2.55;;;;;;;3.75;65.26;98626.22;4966728;28;20030;-71
2023/10/21 00:19:04;;;;;;;3.28;2.33;;;;;;;3.58;65.60;98625.28;4976815;28;20528;-73
2023/10/21 00:21:29;;;;;;;4.72;3.05;;;;;;;3.85;64.61;98632.63;4985295;28;20041;-73
2023/10/21 00:23:55;;;;;;;4.25;2.40;;;;;;;3.73;65.23;98635.78;4974899;28;20457;-73
2023/10/21 00:26:20;;;;;;;5.55;2.97;;;;;;;3.63;65.66;98637.97;4971049;28;20097;-72
2023/10/21 00:28:51;;;;;;;5.78;2.95;;;;;;;3.84;64.89;98645.63;4980713;28;20104;-71
2023/10/21 00:31:16;;;;;;;4.55;3.47;;;;;;;3.84;65.13;98643.88;4979647;28;20026;-71
2023/10/21 00:33:42;;;;;;;18.77;3.40;;;;;;;3.67;65.63;98648.97;4992927;28;20053;-72
2023/10/21 00:36:07;;;;;;;3.67;2.80;;;;;;;3.69;65.70;98647.16;4976994;28;20072;-73
2023/10/21 00:38:33;;;;;;;4.18;2.85;;;;;;;3.80;65.91;98644.91;4981980;28;20120;-76
2023/10/21 00:40:58;;;;;;;7.68;3.53;;;;;;;4.02;64.52;98649.91;4982724;28;20520;-72
2023/10/21 00:43:35;;;;;;;8.07;3.95;;;;;;;3.83;65.29;98644.78;4979769;28;20053;-72
2023/10/21 00:46:05;;;;;;;5.40;3.45;;;;;;;3.99;65.05;98650.88;4984588;28;20025;-73
2023/10/21 00:48:32;;;;;;;5.47;2.80;;;;;;;4.05;64.55;98654.94;4970153;28;20050;-74
2023/10/21 00:50:58;;;;;;;6.45;4.13;;;;;;;4.00;64.99;98652.53;4978970;28;20036;-72
2023/10/21 00:53:24;;;;;;;4.88;3.45;;;;;;;4.05;64.95;98656.66;4958630;28;20269;-73
2023/10/21 00:55:51;;;;;;;7.38;4.03;;;;;;;4.12;64.91;98658.88;4963266;28;20137;-70
2023/10/21 00:58:18;;;;;;;5.82;3.35;;;;;;;4.13;64.94;98659.72;4957728;28;20490;-71
2023/10/21 01:00:43;;;;;;;9.57;4.35;;;;;;;4.08;64.92;98654.78;4965605;28;20069;-70
2023/10/21 01:03:09;;;;;;;6.35;4.18;;;;;;;4.33;64.53;98661.34;4998926;28;20101;-71
2023/10/21 01:05:34;;;;;;;5.82;3.97;;;;;;;4.29;64.75;98659.81;4982372;28;20050;-71
2023/10/21 01:08:00;;;;;;;8.02;4.35;;;;;;;4.36;64.27;98659.44;4980233;28;20129;-71
2023/10/21 01:10:26;;;;;;;8.32;4.78;;;;;;;4.39;64.17;98664.44;4989702;28;20109;-71
2023/10/21 01:12:51;;;;;;;5.63;3.85;;;;;;;4.51;64.22;98669.91;4981810;28;20416;-70
2023/10/21 01:15:17;;;;;;;10.10;4.70;;;;;;;4.66;63.82;98668.31;4986172;28;20134;-71
2023/10/21 01:17:49;;;;;;;8.00;4.80;;;;;;;4.50;63.80;98670.81;4975939;28;20062;-70
2023/10/21 01:20:16;;;;;;;6.78;4.95;;;;;;;4.50;63.52;98663.91;4972217;28;20603;-70
2023/10/21 01:22:41;;;;;;;5.78;4.25;;;;;;;4.60;63.73;98672.03;4985019;28;20047;-70
2023/10/21 01:25:07;;;;;;;8.80;5.25;;;;;;;4.76;63.19;98667.75;4972082;28;20041;-70
2023/10/21 01:27:33;;;;;;;9.15;5.78;;;;;;;4.67;63.97;98675.16;4975589;28;20048;-70
2023/10/21 01:29:58;;;;;;;8.55;6.00;;;;;;;4.77;63.51;98674.63;4975609;28;20137;-70
2023/10/21 01:32:25;;;;;;;12.18;5.10;;;;;;;4.77;63.33;98673.78;4984326;28;20046;-70
2023/10/21 01:34:50;;;;;;;7.90;4.85;;;;;;;4.78;63.59;98680.63;4979464;28;20022;-70
2023/10/21 01:37:16;;;;;;;9.63;5.15;;;;;;;4.66;63.82;98679.50;4963586;28;22106;-70
2023/10/21 01:39:41;;;;;;;8.95;5.57;;;;;;;4.75;63.76;98680.78;4981240;28;20584;-70
2023/10/21 01:42:08;;;;;;;12.60;6.25;;;;;;;4.61;64.22;98686.69;4978921;28;20112;-70
2023/10/21 01:44:34;;;;;;;9.73;5.68;;;;;;;4.87;63.54;98685.31;4987442;28;20034;-70
2023/10/21 01:47:00;;;;;;;10.55;5.88;;;;;;;4.63;64.57;98692.59;4974595;28;20046;-70
2023/10/21 01:49:26;;;;;;;14.88;6.60;;;;;;;4.75;64.09;98696.31;4979503;28;20056;-70
2023/10/21 01:51:51;;;;;;;11.27;6.65;;;;;;;4.76;63.98;98703.16;4995844;28;20037;-69
2023/10/21 01:54:17;;;;;;;13.32;7.47;;;;;;;4.78;64.11;98707.34;4984313;28;21299;-72
2023/10/21 01:56:43;;;;;;;9.57;6.40;;;;;;;4.86;64.10;98708.72;4985544;28;20045;-72
2023/10/21 01:59:08;;;;;;;13.38;7.40;;;;;;;4.90;63.91;98708.53;4964209;28;20574;-72
2023/10/21 02:01:34;;;;;;;13.07;6.68;;;;;;;4.82;64.23;98720.97;4989435;28;20553;-72
2023/10/21 02:04:00;;;;;;;14.48;6.40;;;;;;;4.92;64.18;98722.22;4978527;28;20046;-72
2023/10/21 02:06:26;;;;;;;11.98;7.38;;;;;;;4.95;63.55;98735.00;4970092;28;20571;-72
2023/10/21 02:08:53;;;;;;;14.50;6.57;;;;;;;4.82;64.18;98734.75;4981799;28;20054;-72
2023/10/21 02:11:23;;;;;;;15.00;7.10;;;;;;;5.08;63.50;98735.22;4978090;28;20333;-72
2023/10/21 02:13:50;;;;;;;11.23;7.20;;;;;;;4.98;64.21;98741.78;4980068;28;20045;-73
2023/10/21 02:16:16;;;;;;;11.50;6.65;;;;;;;4.95;64.04;98739.34;4978168;28;20077;-72
2023/10/21 02:18:42;;;;;;;14.43;6.90;;;;;;;4.97;64.27;98747.88;4983816;28;20044;-72
2023/10/21 02:21:07;;;;;;;13.52;7.32;;;;;;;4.94;64.21;98753.19;4964611;28;20048;-73
2023/10/21 02:23:34;;;;;;;11.18;6.85;;;;;;;4.99;63.97;98746.88;4972068;28;20079;-73
2023/10/21 02:26:03;;;;;;;10.57;6.85;;;;;;;5.03;63.95;98752.72;4978690;28;20053;-73
2023/10/21 02:28:29;;;;;;;13.85;8.55;;;;;;;5.11;63.45;98758.34;4987936;28;20770;-73
2023/10/21 02:30:55;;;;;;;13.43;7.35;;;;;;;5.07;63.98;98753.41;4978029;28;20117;-72
2023/10/21 02:33:24;;;;;;;15.05;6.95;;;;;;;4.97;63.90;98753.06;4984424;28;20683;-72
2023/10/21 02:35:55;;;;;;;12.43;6.70;;;;;;;5.11;63.32;98760.13;4990229;28;20080;-73
2023/10/21 02:38:25;;;;;;;9.40;6.10;;;;;;;5.00;64.27;98758.06;4965616;28;20446;-73
2023/10/21 02:40:51;;;;;;;12.27;8.15;;;;;;;5.02;64.12;98758.81;4986926;28;20037;-73
2023/10/21 02:43:17;;;;;;;13.15;7.93;;;;;;;5.19;63.61;98764.00;4983725;28;20042;-73
2023/10/21 02:45:43;;;;;;;14.27;7.97;;;;;;;5.02;64.18;98764.00;4982581;28;20034;-72
2023/10/21 02:48:08;;;;;;;16.73;7.63;;;;;;;4.95;64.27;98771.25;4976360;28;20054;-72
2023/10/21 02:50:34;;;;;;;16.20;7.63;;;;;;;5.15;63.74;98767.66;4966449;28;20042;-73
2023/10/21 02:52:59;;;;;;;13.98;8.45;;;;;;;5.24;63.52;98772.34;4981797;28;20128;-73
2023/10/21 02:55:26;;;;;;;16.65;7.38;;;;;;;5.20;63.69;98770.00;4979935;28;20045;-73
2023/10/21 02:57:51;;;;;;;13.73;8.35;;;;;;;4.94;64.64;98773.91;4980759;28;20535;-72
2023/10/21 03:00:17;;;;;;;16.27;8.63;;;;;;;5.07;64.44;98774.97;4965917;28;20273;-73
2023/10/21 03:02:44;;;;;;;16.83;8.68;;;;;;;5.08;64.45;98776.66;4982801;28;20092;-72
2023/10/21 03:05:09;;;;;;;18.27;8.07;;;;;;;5.17;63.94;98786.53;4992267;28;20034;-72
2023/10/21 03:07:35;;;;;;;21.08;9.27;;;;;;;5.11;64.55;98786.00;4982913;28;20065;-72
2023/10/21 03:10:02;;;;;;;20.40;7.90;;;;;;;5.15;64.47;98785.78;4968009;28;20529;-70
2023/10/21 03:12:29;;;;;;;23.98;8.93;;;;;;;5.15;64.46;98783.19;4949935;28;20689;-70
2023/10/21 03:14:58;;;;;;;17.58;9.30;;;;;;;5.21;64.20;98792.38;4986827;28;20088;-70
2023/10/21 03:17:24;;;;;;;19.48;9.48;;;;;;;5.16;64.51;98797.78;4979138;28;20048;-70
2023/10/21 03:19:50;;;;;;;24.25;10.15;;;;;;;5.00;64.98;98805.50;4994555;28;20554;-70
2023/10/21 03:22:15;;;;;;;18.38;9.50;;;;;;;5.20;64.58;98795.91;4982574;28;20083;-70
2023/10/21 03:24:41;;;;;;;15.20;8.18;;;;;;;5.23;64.46;98806.94;4969199;28;20041;-71
2023/10/21 03:27:06;;;;;;;16.95;8.82;;;;;;;5.33;64.19;98806.47;4975803;28;20769;-71
2023/10/21 03:29:32;;;;;;;20.58;10.07;;;;;;;5.45;63.80;98805.84;4978701;28;20038;-71
2023/10/21 03:31:57;;;;;;;17.60;9.05;;;;;;;5.36;64.06;98808.91;4968753;28;20056;-71
2023/10/21 03:34:23;;;;;;;22.23;9.60;;;;;;;5.51;63.45;98815.88;4975488;28;20555;-71
2023/10/21 03:36:48;;;;;;;21.10;9.38;;;;;;;5.45;63.90;98821.38;4969066;28;20049;-71
2023/10/21 03:39:15;;;;;;;24.98;9.80;;;;;;;5.20;64.23;98811.44;4982633;28;20022;-70
2023/10/21 03:41:40;;;;;;;25.48;10.45;;;;;;;5.25;64.38;98828.41;4979105;28;20053;-71
2023/10/21 03:44:06;;;;;;;26.13;9.02;;;;;;;5.46;63.86;98828.25;4982373;28;20053;-70
2023/10/21 03:46:31;;;;;;;17.08;8.88;;;;;;;5.41;64.01;98823.31;4980035;28;20026;-70
2023/10/21 03:48:57;;;;;;;25.95;9.32;;;;;;;5.41;64.19;98819.84;4981627;28;20046;-71
2023/10/21 03:51:22;;;;;;;27.10;9.93;;;;;;;5.40;64.35;98820.78;4977642;28;20097;-71
2023/10/21 03:53:48;;;;;;;23.58;9.10;;;;;;;5.35;64.56;98833.16;4980121;28;20700;-74
2023/10/21 03:56:14;;;;;;;29.17;9.73;;;;;;;5.44;64.47;98830.09;4977526;28;20038;-73
2023/10/21 03:58:41;;;;;;;24.90;8.52;;;;;;;5.49;64.06;98832.44;4981165;28;20046;-70
2023/10/21 04:01:06;;;;;;;27.10;10.93;;;;;;;5.50;64.10;98834.94;4974598;28;20038;-70
2023/10/21 04:03:33;;;;;;;28.80;9.48;;;;;;;5.46;64.40;98836.03;4965680;28;20042;-71
2023/10/21 04:05:59;;;;;;;23.27;9.45;;;;;;;5.40;64.59;98841.50;4982492;28;20838;-71
2023/10/21 04:08:26;;;;;;;31.73;11.20;;;;;;;5.48;64.06;98841.09;4976715;28;20034;-72
2023/10/21 04:10:54;;;;;;;22.58;10.63;;;;;;;5.51;64.54;98851.34;4979786;28;20316;-72
2023/10/21 04:13:20;;;;;;;25.00;9.77;;;;;;;5.54;64.54;98851.16;4974055;28;21358;-73
2023/10/21 04:15:46;;;;;;;20.98;9.85;;;;;;;5.53;64.39;98852.94;4980147;28;20045;-74
2023/10/21 04:18:12;;;;;;;24.52;9.40;;;;;;;5.52;64.08;98853.81;4974581;28;20104;-75
2023/10/21 04:20:38;;;;;;;27.70;9.57;;;;;;;5.55;64.33;98858.88;4979470;28;20484;-74
2023/10/21 04:23:04;;;;;;;31.33;10.23;;;;;;;5.57;64.14;98862.22;4968982;28;20034;-72
2023/10/21 04:25:29;;;;;;;38.53;11.00;;;;;;;5.48;64.42;98857.50;4969244;28;20412;-74
2023/10/21 04:27:56;;;;;;;36.45;10.18;;;;;;;5.51;64.72;98861.69;4988415;28;20512;-76
2023/10/21 04:30:23;;;;;;;24.42;9.60;;;;;;;5.54;64.29;98864.94;4975193;28;20554;-76
2023/10/21 04:32:48;;;;;;;30.52;11.35;;;;;;;5.67;64.16;98867.75;4984898;28;20054;-71
2023/10/21 04:35:14;;;;;;;24.63;11.38;;;;;;;5.61;64.01;98874.13;4980133;28;20042;-72
2023/10/21 04:37:39;;;;;;;22.08;10.25;;;;;;;5.73;64.12;98871.81;4981793;28;20037;-70
2023/10/21 04:40:06;;;;;;;29.05;10.85;;;;;;;5.72;63.83;98873.53;4985062;28;20030;-74
2023/10/21 04:42:31;;;;;;;36.33;10.85;;;;;;;5.72;64.06;98880.47;4964565;28;20038;-74
2023/10/21 04:44:57;;;;;;;37.17;10.60;;;;;;;5.66;64.02;98887.66;4987366;28;20030;-71
2023/10/21 04:47:22;;;;;;;20.98;10.05;;;;;;;5.71;64.18;98894.38;4976037;28;20050;-72
2023/10/21 04:49:48;;;;;;;34.50;10.52;;;;;;;5.66;64.30;98885.06;4998161;28;20183;-71
2023/10/21 04:52:14;;;;;;;38.08;11.95;;;;;;;5.64;64.40;98892.09;4977206;28;20057;-70
2023/10/21 04:54:43;;;;;;;35.20;11.48;;;;;;;5.50;65.10;98893.69;4970849;28;20133;-73
2023/10/21 04:57:10;;;;;;;26.77;10.30;;;;;;;5.58;64.50;98892.38;4982379;28;20065;-70
2023/10/21 04:59:36;;;;;;;39.05;12.38;;;;;;;5.38;65.26;98902.94;4980283;28;20030;-70
2023/10/21 05:02:03;;;;;;;32.72;10.02;;;;;;;5.61;64.77;98900.03;4978858;28;20105;-70
2023/10/21 05:04:30;;;;;;;33.35;11.10;;;;;;;5.69;64.44;98904.81;4975264;28;20214;-74
2023/10/21 05:06:55;;;;;;;30.90;11.05;;;;;;;5.64;64.50;98909.41;4986137;28;20042;-70
2023/10/21 05:09:21;;;;;;;30.70;11.15;;;;;;;5.79;64.10;98907.75;4977921;28;20121;-70
2023/10/21 05:11:46;;;;;;;27.15;10.88;;;;;;;5.84;63.87;98909.22;4978227;28;20579;-68
2023/10/21 05:14:12;;;;;;;38.63;10.30;;;;;;;5.76;63.87;98915.69;4975414;28;20046;-70
2023/10/21 05:16:38;;;;;;;34.97;10.65;;;;;;;5.82;63.95;98920.59;4972930;28;20064;-69
2023/10/21 05:19:04;;;;;;;27.88;9.63;;;;;;;5.73;64.58;98928.84;4979388;28;20045;-71
2023/10/21 05:21:31;;;;;;;29.13;10.82;;;;;;;5.81;63.79;98926.66;4977534;28;20361;-70
2023/10/21 05:23:58;;;;;;;27.17;10.90;;;;;;;5.81;64.41;98934.44;4980643;28;20048;-73
2023/10/21 05:26:26;;;;;;;24.42;11.50;;;;;;;5.68;64.62;98942.00;4977795;28;20022;-71
2023/10/21 05:28:52;;;;;;;23.70;10.75;;;;;;;5.77;64.15;98940.69;4980148;28;20034;-72
2023/10/21 05:31:18;;;;;;;33.53;10.55;;;;;;;5.72;64.53;98947.88;4978362;28;20026;-72
2023/10/21 05:33:44;;;;;;;29.77;10.13;;;;;;;5.77;64.15;98949.34;4981948;28;20485;-74
2023/10/21 05:36:10;;;;;;;28.48;11.27;;;;;;;5.87;64.12;98947.09;4985746;28;20027;-72
2023/10/21 05:38:36;;;;;;;30.00;10.32;;;;;;;5.90;63.78;98952.13;4989629;28;20535;-74
2023/10/21 05:41:02;;;;;;;24.58;11.13;;;;;;;5.80;64.49;98953.53;4983010;28;20129;-73
2023/10/21 05:43:27;;;;;;;29.52;10.48;;;;;;;5.78;64.09;98956.19;4960685;28;20037;-71
2023/10/21 05:45:53;;;;;;;26.33;11.35;;;;;;;5.81;64.38;98957.78;4981797;28;20292;-71
2023/10/21 05:48:19;;;;;;;31.90;12.15;;;;;;;5.88;64.21;98957.41;4974896;28;20121;-70
2023/10/21 05:50:45;;;;;;;27.05;10.30;;;;;;;5.84;63.83;98962.81;4980741;28;20033;-72
2023/10/21 05:53:10;;;;;;;23.77;10.43;;;;;;;5.89;64.38;98973.78;4979251;28;20424;-71
2023/10/21 05:55:43;;;;;;;28.33;11.05;;;;;;;5.91;64.17;98978.91;4977836;28;20042;-73
2023/10/21 05:58:10;;;;;;;23.55;9.70;;;;;;;5.90;64.34;98983.22;4972021;28;20219;-71
2023/10/21 06:00:38;;;;;;;27.23;9.82;;;;;;;5.88;64.41;98985.91;4989646;28;20030;-73
2023/10/21 06:03:06;;;;;;;23.20;10.90;;;;;;;5.73;64.71;98981.50;4985693;28;20038;-68
2023/10/21 06:05:32;;;;;;;30.95;10.70;;;;;;;5.88;64.28;98995.44;4989174;28;21601;-72
2023/10/21 06:07:57;;;;;;;39.35;11.00;;;;;;;6.04;63.86;99001.53;4979090;28;20099;-72
2023/10/21 06:10:23;;;;;;;21.25;11.15;;;;;;;5.96;63.94;99008.03;4973512;28;20486;-69
2023/10/21 06:12:49;;;;;;;28.85;11.32;;;;;;;5.96;64.06;99008.84;4980293;28;20054;-67
2023/10/21 06:15:15;;;;;;;24.42;11.13;;;;;;;5.87;64.71;99006.72;4975096;28;20040;-69
2023/10/21 06:17:41;;;;;;;34.67;12.25;;;;;;;5.90;64.56;99003.16;4981233;28;20050;-71
2023/10/21 06:20:10;;;;;;;24.42;11.48;;;;;;;5.78;64.85;99013.22;4978587;28;20496;-69
2023/10/21 06:22:35;;;;;;;26.15;11.63;;;;;;;5.99;64.33;99019.06;4976013;28;20462;-70
2023/10/21 06:25:01;;;;;;;26.20;11.25;;;;;;;5.97;64.25;99026.13;4987840;28;20033;-70
2023/10/21 06:27:29;;;;;;;25.15;11.50;;;;;;;6.08;64.33;99023.81;4972690;28;20517;-70
2023/10/21 06:29:55;;;;;;;33.30;11.63;;;;;;;6.18;64.11;99033.72;4982117;28;20060;-72
2023/10/21 06:32:22;;;;;;;24.85;10.88;;;;;;;6.04;64.36;99030.06;4972459;28;20096;-71
2023/10/21 06:34:47;;;;;;;29.90;10.77;;;;;;;6.03;64.66;99041.34;4980196;28;20525;-71
2023/10/21 06:37:13;;;;;;;36.92;12.10;;;;;;;6.08;64.20;99054.06;4980579;28;20042;-71
2023/10/21 06:39:39;;;;;;;37.30;11.32;;;;;;;6.00;64.48;99049.28;4977106;28;20034;-71
2023/10/21 06:42:05;;;;;;;31.92;11.48;;;;;;;6.21;64.10;99049.13;4977904;28;20209;-69
2023/10/21 06:44:32;;;;;;;28.83;10.48;;;;;;;6.23;63.95;99062.84;4978512;28;20061;-72
2023/10/21 06:46:57;;;;;;;33.17;12.20;;;;;;;6.17;64.15;99063.16;4976014;28;20038;-68
2023/10/21 06:49:23;;;;;;;23.63;11.25;;;;;;;6.41;63.40;99072.31;4976891;28;20041;-70
2023/10/21 06:51:52;;;;;;;29.13;11.88;;;;;;;6.28;63.67;99082.50;4985421;28;20029;-73
2023/10/21 06:54:18;;;;;;;30.00;11.80;;;;;;;6.31;63.81;99078.03;4983730;28;20033;-70
2023/10/21 06:56:47;;;;;;;29.33;12.52;;;;;;;6.24;64.41;99080.09;4978653;28;20030;-71
2023/10/21 06:59:14;;;;;;;24.70;11.38;;;;;;;6.33;63.85;99084.88;4979118;28;20136;-74
2023/10/21 07:01:40;;;;;;;21.25;9.90;;;;;;;6.26;64.05;99086.91;4974328;28;20057;-71
2023/10/21 07:04:06;;;;;;;40.22;13.48;;;;;;;6.21;64.28;99088.84;4985497;28;20615;-72
2023/10/21 07:06:32;;;;;;;28.17;11.10;;;;;;;6.21;64.41;99101.00;4974019;28;20042;-70
2023/10/21 07:08:57;;;;;;;30.27;11.23;;;;;;;6.20;64.60;99104.53;4981055;28;20053;-70
2023/10/21 07:11:24;;;;;;;24.88;11.38;;;;;;;6.19;64.59;99102.81;4975233;28;20119;-67
2023/10/21 07:13:49;;;;;;;30.33;11.48;;;;;;;6.28;64.62;99111.03;4983779;28;20242;-69
2023/10/21 07:16:15;;;;;;;31.20;10.98;;;;;;;6.35;64.47;99106.38;4984228;28;20068;-69
2023/10/21 07:18:40;;;;;;;36.45;10.45;;;;;;;6.44;63.90;99113.69;4980284;28;20133;-68
2023/10/21 07:21:09;;;;;;;22.25;10.10;;;;;;;6.27;64.33;99126.66;4979078;28;20538;-68
2023/10/21 07:23:37;;;;;;;22.73;10.90;;;;;;;6.29;64.23;99122.25;4979388;28;20602;-69
2023/10/21 07:26:05;;;;;;;44.63;11.80;;;;;;;6.31;64.10;99127.34;4979967;28;20040;-69
2023/10/21 07:28:33;;;;;;;28.20;10.73;;;;;;;6.35;64.30;99126.28;4972395;28;20046;-69
2023/10/21 07:31:00;;;;;;;31.85;10.48;;;;;;;6.22;64.86;99133.81;4979053;28;20109;-69
2023/10/21 07:33:26;;;;;;;29.10;11.50;;;;;;;6.18;65.20;99140.06;4976883;28;20584;-69
2023/10/21 07:35:54;;;;;;;32.88;11.80;;;;;;;6.28;64.56;99129.22;4980686;28;20029;-69
2023/10/21 07:38:21;;;;;;;31.65;11.77;;;;;;;6.27;64.94;99148.22;4974790;28;20643;-69
2023/10/21 07:40:47;;;;;;;28.48;13.23;;;;;;;6.46;64.45;99137.81;4977517;28;20037;-69
2023/10/21 07:43:16;;;;;;;30.90;11.98;;;;;;;6.33;64.99;99147.13;4977549;28;20061;-68
2023/10/21 07:45:42;;;;;;;41.88;13.45;;;;;;;6.41;64.49;99150.16;4970354;28;20622;-69
2023/10/21 07:48:09;;;;;;;32.03;11.15;;;;;;;6.63;64.23;99149.91;4975484;28;20033;-69
2023/10/21 07:50:34;;;;;;;23.85;11.60;;;;;;;6.71;63.91;99146.94;4970735;28;20030;-69
2023/10/21 07:53:00;;;;;;;31.05;12.77;;;;;;;6.77;64.02;99146.59;4975729;28;20069;-69
2023/10/21 07:55:26;;;;;;;33.35;12.82;;;;;;;6.64;64.60;99155.94;4972101;28;22827;-69
2023/10/21 07:57:55;;;;;;;25.67;11.05;;;;;;;6.67;64.26;99161.84;4963352;28;20069;-69
2023/10/21 08:00:20;;;;;;;27.05;12.50;;;;;;;6.86;63.90;99156.56;4981346;28;20033;-68
2023/10/21 08:02:46;;;;;;;35.22;14.95;;;;;;;6.78;63.70;99166.47;4981401;28;20053;-71
2023/10/21 08:05:11;;;;;;;30.13;11.95;;;;;;;6.78;64.07;99171.69;4987952;28;20038;-69
2023/10/21 08:07:37;;;;;;;31.02;13.00;;;;;;;6.70;64.55;99177.25;4977155;28;20521;-70
2023/10/21 08:10:07;;;;;;;28.50;12.40;;;;;;;7.01;64.04;99177.44;4983523;28;20583;-70
2023/10/21 08:12:33;;;;;;;31.02;13.20;;;;;;;6.98;64.05;99183.63;4985280;28;20440;-69
2023/10/21 08:15:04;;;;;;;24.27;11.13;;;;;;;7.05;63.66;99189.34;4989314;28;20091;-69
2023/10/21 08:17:30;;;;;;;25.75;12.90;;;;;;;7.01;63.92;99196.44;4972380;28;20042;-69
2023/10/21 08:19:56;;;;;;;23.95;11.73;;;;;;;7.23;63.23;99200.53;4980716;28;20341;-68
2023/10/21 08:22:22;;;;;;;25.42;11.40;;;;;;;7.31;63.21;99193.16;4972402;28;20116;-69
2023/10/21 08:24:47;;;;;;;22.95;12.32;;;;;;;7.18;63.65;99192.16;4966047;28;20170;-70
2023/10/21 08:27:13;;;;;;;28.77;12.57;;;;;;;7.11;63.92;99199.44;4957117;28;20034;-68
2023/10/21 08:29:38;;;;;;;30.02;13.18;;;;;;;7.27;63.44;99208.09;4955943;28;20042;-69
2023/10/21 08:32:04;;;;;;;25.55;12.52;;;;;;;7.40;63.04;99215.22;4966163;28;20027;-70
2023/10/21 08:34:31;;;;;;;29.50;13.20;;;;;;;7.51;63.04;99216.34;4958927;28;20043;-69
2023/10/21 08:36:57;;;;;;;26.00;11.65;;;;;;;7.51;63.48;99210.28;4958114;28;20174;-69
2023/10/21 08:39:23;;;;;;;27.08;13.20;;;;;;;7.66;63.17;99212.09;4963533;28;20485;-71
2023/10/21 08:41:49;;;;;;;22.63;11.02;;;;;;;7.40;63.65;99217.81;4956453;28;20030;-70
2023/10/21 08:44:16;;;;;;;25.15;12.13;;;;;;;7.53;63.67;99218.84;4980528;28;20444;-68
2023/10/21 08:46:43;;;;;;;23.73;12.35;;;;;;;7.50;63.76;99219.84;4976927;28;20046;-69
2023/10/21 08:49:10;;;;;;;26.75;12.13;;;;;;;7.60;63.61;99230.66;4982269;28;20046;-70
2023/10/21 08:51:37;;;;;;;23.52;12.43;;;;;;;7.78;63.11;99233.16;4974435;28;20026;-68
2023/10/21 08:54:03;;;;;;;54.92;23.73;;;;;;;7.91;62.98;99235.03;4980613;28;20050;-71
2023/10/21 08:56:33;;;;;;;28.73;12.70;;;;;;;7.98;62.73;99239.88;4979836;28;20057;-68
2023/10/21 08:59:00;;;;;;;73.65;27.55;;;;;;;8.07;62.19;99239.34;4978292;28;20061;-70
2023/10/21 09:01:26;;;;;;;52.45;20.42;;;;;;;8.03;62.49;99243.91;4975187;28;20038;-68
2023/10/21 09:03:51;;;;;;;20.30;11.23;;;;;;;7.96;62.48;99245.16;4982950;28;20493;-71
2023/10/21 09:06:20;;;;;;;26.55;13.18;;;;;;;7.93;63.07;99247.91;4986285;28;20064;-71
2023/10/21 09:08:49;;;;;;;23.27;11.50;;;;;;;7.92;62.78;99261.88;4957415;28;20054;-69
2023/10/21 09:11:20;;;;;;;61.15;24.33;;;;;;;7.99;62.96;99260.59;4955871;28;20108;-68
2023/10/21 09:13:47;;;;;;;22.90;11.23;;;;;;;8.06;62.59;99261.09;4959436;28;20050;-70
2023/10/21 09:16:21;;;;;;;26.30;11.30;;;;;;;7.97;62.84;99265.06;4959629;28;20556;-68
2023/10/21 09:19:01;;;;;;;31.83;14.82;;;;;;;8.06;62.83;99264.53;4951549;28;20473;-69
2023/10/21 09:21:38;;;;;;;22.27;11.45;;;;;;;8.11;62.69;99270.34;4953887;28;20257;-68
2023/10/21 09:24:05;;;;;;;21.83;10.65;;;;;;;8.31;62.35;99278.78;4958149;28;20047;-68
2023/10/21 09:26:39;;;;;;;53.92;22.48;;;;;;;8.37;62.56;99270.66;4953743;28;20040;-68
2023/10/21 09:29:12;;;;;;;19.50;10.38;;;;;;;8.48;62.03;99276.09;4949646;28;20138;-69
2023/10/21 09:31:47;;;;;;;19.13;10.00;;;;;;;8.59;61.75;99277.25;4955408;28;20037;-67
2023/10/21 09:34:30;;;;;;;24.80;11.13;;;;;;;8.81;62.15;99282.94;4958437;28;20072;-71
2023/10/21 09:36:59;;;;;;;18.55;10.10;;;;;;;8.84;61.54;99293.16;4956733;28;20027;-69
2023/10/21 09:39:32;;;;;;;29.45;12.77;;;;;;;8.61;62.09;99293.63;4959852;28;20031;-69
2023/10/21 09:42:01;;;;;;;21.05;11.27;;;;;;;8.79;61.56;99292.59;4955338;28;20186;-69
2023/10/21 09:44:27;;;;;;;19.38;10.25;;;;;;;8.68;62.19;99298.38;4959893;28;20099;-68
2023/10/21 09:46:57;;;;;;;18.42;11.70;;;;;;;8.87;61.42;99292.97;4956422;28;20527;-68
2023/10/21 09:49:24;;;;;;;17.95;10.18;;;;;;;8.82;61.49;99296.78;4965709;28;20026;-69
2023/10/21 09:52:04;;;;;;;20.60;10.25;;;;;;;9.02;61.68;99301.69;4961674;28;20030;-69
2023/10/21 09:54:36;;;;;;;16.27;9.90;;;;;;;8.76;61.78;99306.66;4978123;28;20125;-68
2023/10/21 09:57:04;;;;;;;21.33;12.07;;;;;;;8.59;62.95;99303.28;4957770;28;20034;-69
2023/10/21 09:59:31;;;;;;;19.60;11.38;;;;;;;8.81;62.43;99314.19;4974895;28;20501;-68
2023/10/21 10:01:57;;;;;;;16.67;10.02;;;;;;;9.01;61.70;99314.78;4974694;28;20121;-68
2023/10/21 10:04:26;;;;;;;19.40;11.32;;;;;;;9.02;61.30;99321.69;4977906;28;20043;-68
2023/10/21 10:06:58;;;;;;;19.38;10.10;;;;;;;9.21;61.43;99313.63;4974110;28;20030;-70
2023/10/21 10:09:25;;;;;;;16.42;10.00;;;;;;;9.38;61.49;99313.47;4977622;28;20077;-68
2023/10/21 10:11:58;;;;;;;19.67;11.20;;;;;;;9.38;60.92;99306.47;4971964;28;20030;-69
2023/10/21 10:14:30;;;;;;;17.35;10.20;;;;;;;9.35;61.16;99313.66;4977505;28;20042;-68
2023/10/21 10:16:56;;;;;;;17.20;10.20;;;;;;;9.32;60.95;99312.06;4976724;28;20078;-69
2023/10/21 10:19:40;;;;;;;18.83;10.63;;;;;;;9.42;61.26;99314.97;4976420;28;20042;-68
2023/10/21 10:22:32;;;;;;;19.48;10.00;;;;;;;9.49;61.19;99320.66;4982118;28;20124;-69
2023/10/21 10:25:10;;;;;;;24.25;12.98;;;;;;;9.84;60.83;99326.38;4984170;28;20467;-69
2023/10/21 10:27:40;;;;;;;18.45;10.45;;;;;;;9.90;60.27;99327.72;4972394;28;20050;-68
2023/10/21 10:30:15;;;;;;;25.55;13.93;;;;;;;9.83;60.84;99318.63;4985583;28;20034;-68
2023/10/21 10:32:43;;;;;;;18.25;11.13;;;;;;;10.03;60.22;99333.88;4970886;28;20484;-68
2023/10/21 10:35:09;;;;;;;22.52;10.77;;;;;;;10.54;59.66;99341.97;4984201;28;20025;-69
2023/10/21 10:37:36;;;;;;;15.25;8.98;;;;;;;10.77;59.13;99340.50;4973260;28;20544;-69
2023/10/21 10:40:19;;;;;;;19.77;10.68;;;;;;;11.09;58.59;99342.78;4980685;28;20957;-70
2023/10/21 10:42:45;;;;;;;15.80;10.23;;;;;;;11.11;57.88;99347.94;4975414;28;20069;-69
2023/10/21 10:45:10;;;;;;;22.35;12.20;;;;;;;11.43;57.97;99353.59;4980550;28;20092;-69
2023/10/21 10:47:38;;;;;;;11.80;8.27;;;;;;;11.73;56.96;99357.66;4975216;28;20482;-69
2023/10/21 10:50:12;;;;;;;31.85;15.38;;;;;;;11.71;56.49;99360.41;4981853;28;20034;-69
2023/10/21 10:52:38;;;;;;;10.82;7.68;;;;;;;11.32;56.79;99358.72;4974323;28;20472;-69
2023/10/21 10:55:08;;;;;;;11.38;8.27;;;;;;;11.42;57.03;99355.38;4979247;28;20034;-69
2023/10/21 10:57:34;;;;;;;13.90;8.23;;;;;;;11.27;56.90;99361.63;4966846;28;20417;-68
2023/10/21 10:59:59;;;;;;;12.40;8.18;;;;;;;11.96;57.02;99358.75;4978238;28;20045;-69
2023/10/21 11:02:28;;;;;;;11.43;7.88;;;;;;;12.64;55.08;99354.75;4981273;28;20073;-68
2023/10/21 11:04:59;;;;;;;9.63;8.02;;;;;;;12.39;54.59;99355.69;4979955;28;20065;-68
2023/10/21 11:07:30;;;;;;;10.45;7.38;;;;;;;11.95;55.87;99363.13;4980655;28;20057;-69
2023/10/21 11:10:06;;;;;;;12.23;7.40;;;;;;;12.01;55.30;99367.09;4975206;28;20030;-68
2023/10/21 11:12:33;;;;;;;11.48;7.05;;;;;;;11.96;55.95;99364.81;4985839;28;20105;-69
2023/10/21 11:15:00;;;;;;;12.73;8.10;;;;;;;12.03;56.19;99370.44;4993213;28;20030;-69
2023/10/21 11:17:26;;;;;;;8.82;7.85;;;;;;;12.64;55.95;99360.00;4968620;28;20656;-69
2023/10/21 11:19:52;;;;;;;10.52;7.63;;;;;;;12.54;54.65;99369.47;4974507;28;20473;-69
2023/10/21 11:22:21;;;;;;;13.88;7.13;;;;;;;12.29;55.39;99377.31;4978499;28;20137;-69
2023/10/21 11:24:47;;;;;;;14.38;7.30;;;;;;;11.61;56.45;99380.28;4975501;28;20141;-71
2023/10/21 11:27:14;;;;;;;15.70;8.45;;;;;;;11.52;56.95;99380.91;4979161;28;20096;-69
2023/10/21 11:29:41;;;;;;;14.95;8.70;;;;;;;11.52;57.26;99381.75;4990791;28;20053;-69